Time;durP1;ratioP1;P1;durP2;ratioP2;P2;SDS_P1;SDS_P2;PMS_P1;PMS_P2;Temp;Humidity;BMP_temperature;BMP_pressure;BME280_temperature;BME280_humidity;BME280_pressure;Samples;Min_cycle;Max_cycle;Signal;HPM_P1;HPM_P2
2023/04/30 00:03:41;;;;;;;3.50;2.35;;;16.00;66.20;;;;;;10364019;28;20076;-55
2023/04/30 00:08:41;;;;;;;2.92;1.95;;;16.00;66.20;;;;;;10364219;28;20072;-56
2023/04/30 00:13:42;;;;;;;3.53;1.77;;;16.00;66.10;;;;;;10364464;28;20076;-55
2023/04/30 00:18:43;;;;;;;3.50;2.10;;;15.90;66.00;;;;;;10364106;28;20101;-55
2023/04/30 00:23:44;;;;;;;2.72;2.03;;;16.00;66.00;;;;;;10361148;28;20022;-56
2023/04/30 00:28:44;;;;;;;4.38;2.50;;;16.00;66.00;;;;;;10353233;28;20041;-54
2023/04/30 00:33:45;;;;;;;2.78;1.80;;;15.90;65.90;;;;;;10363785;28;20022;-56
2023/04/30 00:38:45;;;;;;;3.45;2.20;;;15.90;65.70;;;;;;10363579;28;20101;-56
2023/04/30 00:43:46;;;;;;;4.65;2.00;;;15.90;65.70;;;;;;10368484;28;20103;-55
2023/04/30 00:48:47;;;;;;;2.83;2.03;;;15.90;65.60;;;;;;10371126;28;20126;-56
2023/04/30 00:53:48;;;;;;;3.28;2.30;;;15.90;65.60;;;;;;10371388;28;20022;-56
2023/04/30 00:58:50;;;;;;;2.80;2.00;;;15.90;65.60;;;;;;10368723;28;20026;-54
2023/04/30 01:03:51;;;;;;;2.20;1.65;;;15.90;65.50;;;;;;10370878;28;20112;-56
2023/04/30 01:08:52;;;;;;;2.85;1.88;;;15.90;65.50;;;;;;10367638;28;20030;-54
2023/04/30 01:14:15;;;;;;;3.17;2.33;;;15.90;65.20;;;;;;10368634;28;20030;-56
2023/04/30 01:19:41;;;;;;;3.15;2.40;;;15.80;65.20;;;;;;10369943;28;20033;-56
2023/04/30 01:25:34;;;;;;;7.63;2.85;;;15.80;65.20;;;;;;10344813;28;20105;-56
2023/04/30 01:30:36;;;;;;;3.50;2.22;;;15.80;65.20;;;;;;10360711;28;20094;-55
2023/04/30 01:35:53;;;;;;;3.55;2.33;;;15.80;65.70;;;;;;10369131;28;20104;-55
2023/04/30 01:41:04;;;;;;;3.13;2.22;;;15.80;65.00;;;;;;10369355;28;20110;-55
2023/04/30 01:46:44;;;;;;;3.35;1.98;;;15.80;65.00;;;;;;10368989;28;20032;-55
2023/04/30 01:51:47;;;;;;;2.72;2.00;;;15.80;65.00;;;;;;10367326;28;20535;-56
2023/04/30 01:57:04;;;;;;;4.03;1.95;;;15.80;64.90;;;;;;10368433;28;20058;-56
2023/04/30 02:02:06;;;;;;;3.92;2.47;;;15.80;64.90;;;;;;10368532;28;20029;-56
2023/04/30 02:07:06;;;;;;;3.60;1.98;;;15.80;64.90;;;;;;10367681;28;20052;-55
2023/04/30 02:12:07;;;;;;;2.95;2.22;;;15.80;64.90;;;;;;10368076;28;20796;-56
2023/04/30 02:17:08;;;;;;;2.92;2.40;;;15.70;64.70;;;;;;10366576;28;20106;-54
2023/04/30 02:22:09;;;;;;;3.72;2.25;;;15.70;64.70;;;;;;10365708;28;20113;-55
2023/04/30 02:27:09;;;;;;;3.70;2.47;;;15.70;64.80;;;;;;10366725;28;20168;-55
2023/04/30 02:32:10;;;;;;;3.58;2.08;;;15.70;64.80;;;;;;10360537;28;20092;-55
2023/04/30 02:37:11;;;;;;;2.85;2.15;;;15.70;64.80;;;;;;10366422;28;20041;-56
2023/04/30 02:42:11;;;;;;;2.72;1.98;;;15.70;64.80;;;;;;10366346;28;20617;-55
2023/04/30 02:47:12;;;;;;;4.53;2.28;;;15.60;64.70;;;;;;10365440;28;20477;-56
2023/04/30 02:52:13;;;;;;;3.28;2.10;;;15.60;64.70;;;;;;10365373;28;20040;-56
2023/04/30 02:57:14;;;;;;;4.40;2.20;;;15.60;64.70;;;;;;10366144;28;20027;-55
2023/04/30 03:02:15;;;;;;;4.05;2.22;;;15.60;64.70;;;;;;10363999;28;20184;-56
2023/04/30 03:07:16;;;;;;;3.65;2.20;;;15.60;64.70;;;;;;10365205;28;20109;-56
2023/04/30 03:12:16;;;;;;;2.47;1.70;;;15.60;65.20;;;;;;10365694;28;20084;-55
2023/04/30 03:17:17;;;;;;;3.20;2.35;;;15.60;64.60;;;;;;10364531;28;20097;-56
2023/04/30 03:22:19;;;;;;;2.75;1.85;;;15.60;64.60;;;;;;10365410;28;20029;-56
2023/04/30 03:27:19;;;;;;;2.95;1.77;;;15.60;64.50;;;;;;10352338;28;20137;-56
2023/04/30 03:32:20;;;;;;;3.33;2.28;;;15.50;64.40;;;;;;10365555;28;20030;-55
2023/04/30 03:37:21;;;;;;;3.05;2.30;;;15.50;64.30;;;;;;10364474;28;20072;-54
2023/04/30 03:42:21;;;;;;;3.35;1.85;;;15.50;64.30;;;;;;10364139;28;20050;-55
2023/04/30 03:47:22;;;;;;;3.45;1.90;;;15.50;64.20;;;;;;10364153;28;20029;-56
2023/04/30 03:52:23;;;;;;;4.10;2.08;;;15.50;64.20;;;;;;10361911;28;20033;-56
2023/04/30 03:57:24;;;;;;;4.10;2.33;;;15.50;64.10;;;;;;10357332;28;20019;-55
2023/04/30 04:02:25;;;;;;;2.97;2.00;;;15.50;64.20;;;;;;10361791;28;20095;-56
2023/04/30 04:07:25;;;;;;;2.63;1.83;;;15.50;64.10;;;;;;10354803;28;20045;-54
2023/04/30 04:12:26;;;;;;;3.33;2.40;;;15.50;64.10;;;;;;10359074;28;20398;-55
2023/04/30 04:17:27;;;;;;;2.83;2.05;;;15.50;64.70;;;;;;10363606;28;20193;-55
2023/04/30 04:22:28;;;;;;;2.67;1.85;;;15.50;64.30;;;;;;10368719;28;20026;-56
2023/04/30 04:27:28;;;;;;;2.30;1.50;;;15.70;64.20;;;;;;10350187;28;20093;-55
2023/04/30 04:32:31;;;;;;;2.85;1.73;;;15.80;63.50;;;;;;10365413;28;20034;-56
2023/04/30 04:37:33;;;;;;;3.53;1.92;;;16.00;62.80;;;;;;10370726;28;20018;-56
2023/04/30 04:42:34;;;;;;;2.83;2.05;;;16.10;62.60;;;;;;10370697;28;20022;-54
2023/04/30 04:47:35;;;;;;;2.80;2.20;;;16.20;62.40;;;;;;10369907;28;20496;-56
2023/04/30 04:52:36;;;;;;;5.20;4.20;;;16.20;62.30;;;;;;10368693;28;20665;-54
2023/04/30 04:57:36;;;;;;;3.50;2.40;;;16.20;62.90;;;;;;10369388;28;20081;-54
2023/04/30 05:02:37;;;;;;;5.10;2.85;;;16.30;63.10;;;;;;10369843;28;20029;-54
2023/04/30 05:07:39;;;;;;;8.90;3.28;;;16.30;64.80;;;;;;10369395;28;20117;-57
2023/04/30 05:12:39;;;;;;;5.43;2.42;;;16.30;64.80;;;;;;10368732;28;20022;-56
2023/04/30 05:17:40;;;;;;;6.25;2.72;;;16.30;65.40;;;;;;10363960;28;20124;-53
2023/04/30 05:22:41;;;;;;;7.90;3.42;;;16.30;65.10;;;;;;10364590;28;20619;-55
2023/04/30 05:27:42;;;;;;;5.30;2.85;;;16.40;65.70;;;;;;10368722;28;20851;-54
2023/04/30 05:32:42;;;;;;;7.63;2.58;;;16.40;65.40;;;;;;10370250;28;20079;-56
2023/04/30 05:37:44;;;;;;;8.20;3.67;;;16.40;65.80;;;;;;10367953;28;20025;-55
2023/04/30 05:42:44;;;;;;;10.82;3.17;;;16.40;66.20;;;;;;10368990;28;20084;-55
2023/04/30 05:47:45;;;;;;;19.98;4.32;;;16.40;66.00;;;;;;10367230;28;20045;-55
2023/04/30 05:52:46;;;;;;;7.93;3.33;;;16.40;66.10;;;;;;10368197;28;20052;-57
2023/04/30 05:57:46;;;;;;;11.88;3.25;;;16.30;66.40;;;;;;10355007;28;20042;-55
2023/04/30 06:02:47;;;;;;;12.15;4.60;;;16.20;66.60;;;;;;10367562;28;20164;-54
2023/04/30 06:07:47;;;;;;;11.13;4.03;;;16.20;66.70;;;;;;10363216;28;20041;-57
2023/04/30 06:12:48;;;;;;;9.05;3.17;;;16.10;66.30;;;;;;10366173;28;20445;-57
2023/04/30 06:17:49;;;;;;;10.55;3.55;;;16.00;66.50;;;;;;10367154;28;20116;-57
2023/04/30 06:22:50;;;;;;;6.80;4.05;;;16.00;66.40;;;;;;10364788;28;20109;-56
2023/04/30 06:27:52;;;;;;;7.32;3.53;;;15.90;66.50;;;;;;10363046;28;20029;-56
2023/04/30 06:32:54;;;;;;;4.88;2.58;;;15.90;66.60;;;;;;10365614;28;20565;-55
2023/04/30 06:37:54;;;;;;;8.95;2.80;;;15.90;66.70;;;;;;10363849;28;20029;-57
2023/04/30 06:42:55;;;;;;;8.00;3.13;;;15.90;66.70;;;;;;10365896;28;20057;-55
2023/04/30 06:47:56;;;;;;;6.30;3.15;;;15.80;66.80;;;;;;10366493;28;20029;-56
2023/04/30 06:52:57;;;;;;;6.80;2.55;;;15.80;66.80;;;;;;10337624;28;20426;-56
2023/04/30 06:57:57;;;;;;;10.23;2.88;;;15.80;66.80;;;;;;10370385;28;20046;-57
2023/04/30 07:03:02;;;;;;;5.43;2.70;;;15.80;67.00;;;;;;10360468;28;20133;-55
2023/04/30 07:08:03;;;;;;;6.20;3.03;;;15.80;66.90;;;;;;10363090;28;20018;-55
2023/04/30 07:13:04;;;;;;;4.28;2.92;;;15.80;66.60;;;;;;10365364;28;20075;-54
2023/04/30 07:18:05;;;;;;;6.00;2.60;;;15.80;66.60;;;;;;10365519;28;20032;-56
2023/04/30 07:23:05;;;;;;;7.35;2.83;;;15.80;66.70;;;;;;10363955;28;20113;-56
2023/04/30 07:28:06;;;;;;;5.30;2.30;;;15.80;66.80;;;;;;10351987;28;20069;-55
2023/04/30 07:33:08;;;;;;;5.15;2.67;;;15.80;66.70;;;;;;10365972;28;20097;-56
2023/04/30 07:38:09;;;;;;;3.45;2.20;;;15.80;67.10;;;;;;10363995;28;20119;-56
2023/04/30 07:43:10;;;;;;;3.80;2.00;;;15.80;67.00;;;;;;10364738;28;20121;-55
2023/04/30 07:48:11;;;;;;;6.72;3.70;;;15.80;67.10;;;;;;10364701;28;20029;-56
2023/04/30 07:53:11;;;;;;;3.65;2.03;;;15.80;67.00;;;;;;10364028;28;20438;-56
2023/04/30 07:58:12;;;;;;;3.38;2.30;;;15.80;67.00;;;;;;10364740;28;20042;-55
2023/04/30 08:03:13;;;;;;;3.08;1.98;;;15.80;66.90;;;;;;10363843;28;20120;-56
2023/04/30 08:08:13;;;;;;;3.25;2.10;;;15.90;67.00;;;;;;10342057;28;20034;-57
2023/04/30 08:13:14;;;;;;;13.73;3.00;;;15.90;66.80;;;;;;10356844;28;20065;-54
2023/04/30 08:18:15;;;;;;;6.47;2.30;;;15.90;66.90;;;;;;10359419;28;20614;-52
2023/04/30 08:23:15;;;;;;;6.32;2.67;;;16.00;66.70;;;;;;10361481;28;20216;-55
2023/04/30 08:28:16;;;;;;;6.78;2.72;;;15.90;66.70;;;;;;10349384;28;20114;-55
2023/04/30 08:33:17;;;;;;;6.88;2.67;;;16.00;66.90;;;;;;10360981;28;20496;-54
2023/04/30 08:38:18;;;;;;;11.40;3.70;;;16.00;66.70;;;;;;10362863;28;20129;-56
2023/04/30 08:43:19;;;;;;;7.15;2.97;;;16.00;66.90;;;;;;10360940;28;20085;-52
2023/04/30 08:48:20;;;;;;;10.13;2.85;;;16.00;66.90;;;;;;10361006;28;20022;-55
2023/04/30 08:53:21;;;;;;;7.25;3.47;;;16.00;66.70;;;;;;10359799;28;20080;-55
2023/04/30 08:58:22;;;;;;;8.80;3.58;;;16.00;66.90;;;;;;10361652;28;20025;-54
2023/04/30 09:03:22;;;;;;;11.35;3.30;;;16.00;66.60;;;;;;10364317;28;20409;-53
2023/04/30 09:08:41;;;;;;;8.88;3.72;;;16.00;66.60;;;;;;10370041;28;20113;-56
2023/04/30 09:13:42;;;;;;;8.88;3.55;;;16.00;66.50;;;;;;10367192;28;20065;-54
2023/04/30 09:18:42;;;;;;;19.25;4.53;;;16.00;66.40;;;;;;10363474;28;20026;-53
2023/04/30 09:23:58;;;;;;;13.73;3.83;;;16.00;66.40;;;;;;10362406;28;20715;-53
2023/04/30 09:28:59;;;;;;;17.15;4.55;;;16.00;66.20;;;;;;10373845;28;20048;-56
2023/04/30 09:34:00;;;;;;;22.13;4.50;;;16.10;66.30;;;;;;10369776;28;20033;-55
2023/04/30 09:39:16;;;;;;;19.70;4.85;;;16.10;66.50;;;;;;10368190;28;20026;-55
2023/04/30 09:44:31;;;;;;;25.63;5.97;;;16.20;66.40;;;;;;10364690;28;20365;-55
2023/04/30 09:49:36;;;;;;;25.10;6.18;;;16.30;67.50;;;;;;10368807;28;20048;-53
2023/04/30 09:54:37;;;;;;;18.35;5.03;;;16.60;73.50;;;;;;10368674;28;20022;-54
2023/04/30 09:59:44;;;;;;;16.88;4.43;;;16.70;69.50;;;;;;10368670;28;20018;-56
2023/04/30 10:04:52;;;;;;;15.45;4.75;;;16.60;67.10;;;;;;10368574;28;20404;-56
2023/04/30 10:10:02;;;;;;;14.45;5.38;;;16.60;68.40;;;;;;10366550;28;20084;-52
2023/04/30 10:15:15;;;;;;;16.45;4.50;;;16.50;68.20;;;;;;10362791;28;20641;-57
2023/04/30 10:20:17;;;;;;;18.20;5.18;;;16.40;68.20;;;;;;10363729;28;20033;-56
2023/04/30 10:25:18;;;;;;;17.25;4.05;;;16.40;68.50;;;;;;10365514;28;20092;-55
2023/04/30 10:30:21;;;;;;;15.55;5.22;;;16.50;68.50;;;;;;10365488;28;20723;-54
2023/04/30 10:35:39;;;;;;;11.80;3.30;;;16.50;68.40;;;;;;10366812;28;20041;-56
2023/04/30 10:40:40;;;;;;;10.18;3.40;;;16.50;68.60;;;;;;10365663;28;20026;-56
2023/04/30 10:45:42;;;;;;;16.35;4.35;;;16.50;68.60;;;;;;10366755;28;20128;-57
2023/04/30 10:50:45;;;;;;;14.88;3.88;;;16.50;68.60;;;;;;10365811;28;20030;-55
2023/04/30 10:56:07;;;;;;;13.60;3.80;;;16.50;68.30;;;;;;10364338;28;20096;-55
2023/04/30 11:01:15;;;;;;;11.02;3.45;;;16.50;68.40;;;;;;10365824;28;20061;-55
2023/04/30 11:06:19;;;;;;;14.65;4.40;;;16.50;68.10;;;;;;10365570;28;20038;-57
2023/04/30 11:11:20;;;;;;;6.90;3.20;;;16.60;68.00;;;;;;10365399;28;20052;-57
2023/04/30 11:16:33;;;;;;;7.88;3.35;;;16.50;67.50;;;;;;10364813;28;20021;-56
2023/04/30 11:22:02;;;;;;;9.55;3.45;;;16.60;67.80;;;;;;10361486;28;20054;-56
2023/04/30 11:27:06;;;;;;;12.30;3.47;;;16.60;68.00;;;;;;10360204;28;20038;-55
2023/04/30 11:32:07;;;;;;;5.72;2.95;;;16.60;68.00;;;;;;10366079;28;20033;-57
2023/04/30 11:37:10;;;;;;;9.70;3.22;;;16.60;68.00;;;;;;10363965;28;20018;-57
2023/04/30 11:42:20;;;;;;;6.57;3.00;;;16.60;67.90;;;;;;10360965;28;20041;-56
2023/04/30 11:47:20;;;;;;;5.53;3.03;;;16.60;67.90;;;;;;10362670;28;20156;-56
2023/04/30 11:52:24;;;;;;;4.72;2.45;;;16.70;67.90;;;;;;10362338;28;20037;-56
2023/04/30 11:57:25;;;;;;;3.88;2.20;;;16.70;67.90;;;;;;10363110;28;20018;-56
2023/04/30 12:02:25;;;;;;;9.07;3.65;;;16.70;67.70;;;;;;10362878;28;20523;-56
2023/04/30 12:07:26;;;;;;;6.35;2.40;;;16.80;67.70;;;;;;10364156;28;20042;-56
2023/04/30 12:12:31;;;;;;;6.70;2.00;;;16.80;67.60;;;;;;10363616;28;20034;-56
2023/04/30 12:17:33;;;;;;;5.78;2.53;;;16.80;67.60;;;;;;10362852;28;20030;-56
2023/04/30 12:22:36;;;;;;;6.47;2.53;;;16.90;67.60;;;;;;10363597;28;20022;-55
2023/04/30 12:27:37;;;;;;;3.65;2.38;;;16.90;67.70;;;;;;10353889;28;20041;-56
2023/04/30 12:32:47;;;;;;;7.63;2.40;;;16.90;67.60;;;;;;10363382;28;20041;-57
2023/04/30 12:37:51;;;;;;;6.72;1.90;;;16.90;67.60;;;;;;10365642;28;20018;-56
2023/04/30 12:43:03;;;;;;;4.55;2.20;;;17.00;67.60;;;;;;10370830;28;20470;-55
2023/04/30 12:48:04;;;;;;;4.63;1.70;;;17.00;67.60;;;;;;10358525;28;20765;-56
2023/04/30 12:53:06;;;;;;;3.83;2.08;;;17.00;67.50;;;;;;10369744;28;20041;-56
2023/04/30 12:58:10;;;;;;;5.32;1.73;;;17.00;67.50;;;;;;10371187;28;20018;-56
2023/04/30 13:03:12;;;;;;;5.85;2.15;;;17.10;67.50;;;;;;10370858;28;20085;-56
2023/04/30 13:08:13;;;;;;;3.97;1.70;;;17.10;67.40;;;;;;10369110;28;20065;-56
2023/04/30 13:13:16;;;;;;;5.00;1.83;;;17.00;67.50;;;;;;10370401;28;20743;-57
2023/04/30 13:18:17;;;;;;;5.43;2.28;;;16.90;67.70;;;;;;10368775;28;20893;-57
2023/04/30 13:23:18;;;;;;;3.50;1.85;;;16.80;67.80;;;;;;10369626;28;20096;-56
2023/04/30 13:28:18;;;;;;;2.80;2.03;;;16.80;67.90;;;;;;10343537;28;20080;-56
2023/04/30 13:33:19;;;;;;;4.65;1.55;;;16.80;68.00;;;;;;10367856;28;20033;-54
2023/04/30 13:38:20;;;;;;;2.90;1.77;;;16.70;68.00;;;;;;10367966;28;20032;-56
2023/04/30 13:43:21;;;;;;;3.28;1.50;;;16.80;68.00;;;;;;10368485;28;20038;-56
2023/04/30 13:48:22;;;;;;;3.28;1.88;;;16.80;68.00;;;;;;10368740;28;20179;-57
2023/04/30 13:53:23;;;;;;;3.80;1.73;;;16.70;68.00;;;;;;10369096;28;20132;-57
2023/04/30 13:58:24;;;;;;;2.70;1.30;;;16.70;68.00;;;;;;10368778;28;20025;-57
2023/04/30 14:03:25;;;;;;;2.53;1.45;;;16.80;68.00;;;;;;10367839;28;20041;-56
2023/04/30 14:08:26;;;;;;;1.95;1.40;;;16.80;67.90;;;;;;10368130;28;20069;-55
2023/04/30 14:13:27;;;;;;;2.28;1.25;;;16.90;67.90;;;;;;10366626;28;20112;-55
2023/04/30 14:18:27;;;;;;;2.28;1.25;;;16.90;67.70;;;;;;10368003;28;20633;-57
2023/04/30 14:23:28;;;;;;;4.03;1.38;;;17.00;67.70;;;;;;10367473;28;20061;-55
2023/04/30 14:28:29;;;;;;;3.97;1.35;;;17.00;67.60;;;;;;10365976;28;20152;-56
2023/04/30 14:33:30;;;;;;;4.70;1.88;;;17.00;67.60;;;;;;10368852;28;20030;-55
2023/04/30 14:38:31;;;;;;;3.88;1.20;;;17.00;67.60;;;;;;10367129;28;20637;-54
2023/04/30 14:43:32;;;;;;;3.55;1.50;;;16.90;67.70;;;;;;10366519;28;20112;-55
2023/04/30 14:48:32;;;;;;;2.38;1.50;;;16.90;67.70;;;;;;10366910;28;20425;-56
2023/04/30 14:53:33;;;;;;;2.60;1.50;;;16.90;67.90;;;;;;10360082;28;20038;-56
2023/04/30 14:58:34;;;;;;;2.83;1.50;;;16.80;67.90;;;;;;10366078;28;20107;-56
2023/04/30 15:03:34;;;;;;;1.98;1.65;;;16.90;67.90;;;;;;10364883;28;20721;-56
2023/04/30 15:08:35;;;;;;;2.97;1.30;;;16.90;68.30;;;;;;10366133;28;20033;-56
2023/04/30 15:13:36;;;;;;;2.35;1.25;;;16.90;68.10;;;;;;10364276;28;20033;-55
2023/04/30 15:18:37;;;;;;;2.67;1.20;;;16.90;68.00;;;;;;10365815;28;20641;-56
2023/04/30 15:23:38;;;;;;;3.25;1.50;;;16.80;68.10;;;;;;10365359;28;20646;-55
2023/04/30 15:28:39;;;;;;;1.50;1.00;;;16.80;68.50;;;;;;10365289;28;20026;-57
2023/04/30 15:33:40;;;;;;;1.30;0.80;;;16.90;68.50;;;;;;10364768;28;20495;-56
2023/04/30 15:38:41;;;;;;;2.17;1.42;;;16.90;68.20;;;;;;10364626;28;20072;-56
2023/04/30 15:43:42;;;;;;;3.08;1.30;;;16.90;68.40;;;;;;10365000;28;20121;-56
2023/04/30 15:48:42;;;;;;;2.95;1.50;;;16.90;68.70;;;;;;10364806;28;20109;-56
2023/04/30 15:53:43;;;;;;;1.67;1.15;;;17.00;68.70;;;;;;10364369;28;20571;-55
2023/04/30 15:58:44;;;;;;;1.98;0.95;;;16.90;68.40;;;;;;10363093;28;20584;-56
2023/04/30 16:03:44;;;;;;;1.08;0.80;;;16.90;68.50;;;;;;10364137;28;20081;-56
2023/04/30 16:08:46;;;;;;;1.90;1.20;;;16.90;68.70;;;;;;10363376;28;20018;-56
2023/04/30 16:13:46;;;;;;;1.60;1.00;;;16.80;68.70;;;;;;10372937;28;20073;-54
2023/04/30 16:18:47;;;;;;;1.73;0.90;;;16.80;68.80;;;;;;10377933;28;20053;-56
2023/04/30 16:23:49;;;;;;;1.77;1.13;;;16.80;68.70;;;;;;10391762;28;20084;-56
2023/04/30 16:28:50;;;;;;;1.60;0.93;;;16.80;68.70;;;;;;10377898;28;20025;-57
2023/04/30 16:33:50;;;;;;;1.38;0.77;;;16.90;68.60;;;;;;10378006;28;20499;-57
2023/04/30 16:38:51;;;;;;;2.75;0.80;;;16.90;68.60;;;;;;10377324;28;20046;-54
2023/04/30 16:43:52;;;;;;;1.33;0.90;;;16.90;68.50;;;;;;10375169;28;20053;-56
2023/04/30 16:48:52;;;;;;;1.80;1.00;;;16.90;68.50;;;;;;10376943;28;20029;-57
2023/04/30 16:53:53;;;;;;;1.60;1.10;;;16.90;68.60;;;;;;10376184;28;20045;-56
2023/04/30 16:58:54;;;;;;;1.15;0.80;;;16.80;68.60;;;;;;10376593;28;20489;-56
2023/04/30 17:03:54;;;;;;;2.03;1.08;;;16.80;68.70;;;;;;10374984;28;20077;-56
2023/04/30 17:08:55;;;;;;;2.08;1.15;;;16.80;68.60;;;;;;10376902;28;20068;-55
2023/04/30 17:13:56;;;;;;;1.13;0.73;;;16.80;68.60;;;;;;10376224;28;20120;-55
2023/04/30 17:18:57;;;;;;;1.67;0.85;;;16.80;68.50;;;;;;10374998;28;20077;-56
2023/04/30 17:23:58;;;;;;;1.65;0.90;;;16.80;68.60;;;;;;10373109;28;20457;-56
2023/04/30 17:28:59;;;;;;;1.45;0.80;;;16.80;68.60;;;;;;10369465;28;20088;-56
2023/04/30 17:33:59;;;;;;;1.65;1.10;;;16.80;68.50;;;;;;10370537;28;20637;-56
2023/04/30 17:39:04;;;;;;;0.98;0.73;;;16.80;68.40;;;;;;10369576;28;20053;-56
2023/04/30 17:44:04;;;;;;;1.35;0.80;;;16.80;68.40;;;;;;10369198;28;20049;-56
2023/04/30 17:49:05;;;;;;;1.38;1.00;;;16.80;68.40;;;;;;10369099;28;20057;-57
2023/04/30 17:54:06;;;;;;;0.98;0.70;;;16.80;68.50;;;;;;10368336;28;20128;-54
2023/04/30 17:59:07;;;;;;;1.45;0.98;;;16.70;68.50;;;;;;10368446;28;20021;-57
2023/04/30 18:04:08;;;;;;;1.33;0.65;;;16.70;68.50;;;;;;10366793;28;20133;-57
2023/04/30 18:09:09;;;;;;;1.10;0.80;;;16.70;68.60;;;;;;10368277;28;20457;-57
2023/04/30 18:14:09;;;;;;;1.30;0.70;;;16.70;69.20;;;;;;10367573;28;20180;-57
2023/04/30 18:19:10;;;;;;;1.58;1.13;;;16.70;68.70;;;;;;10368019;28;20832;-56
2023/04/30 18:24:11;;;;;;;1.38;0.68;;;16.70;68.70;;;;;;10367551;28;20032;-57
2023/04/30 18:29:13;;;;;;;1.10;0.63;;;16.70;68.70;;;;;;10367567;28;20053;-56
2023/04/30 18:34:14;;;;;;;1.38;0.80;;;16.60;68.60;;;;;;10367828;28;20124;-55
2023/04/30 18:39:15;;;;;;;1.70;0.82;;;16.60;68.60;;;;;;10367115;28;20026;-56
2023/04/30 18:44:16;;;;;;;1.13;0.60;;;16.60;68.60;;;;;;10366812;28;20423;-56
2023/04/30 18:49:16;;;;;;;1.33;0.90;;;16.60;68.60;;;;;;10366561;28;20022;-56
2023/04/30 18:54:17;;;;;;;1.17;0.82;;;16.60;68.60;;;;;;10380587;28;20169;-55
2023/04/30 18:59:19;;;;;;;1.10;0.70;;;16.60;68.60;;;;;;10365810;28;20069;-57
2023/04/30 19:04:21;;;;;;;1.27;0.52;;;16.60;68.60;;;;;;10365685;28;20525;-57
2023/04/30 19:09:21;;;;;;;1.55;0.88;;;16.60;68.70;;;;;;10364552;28;20048;-56
2023/04/30 19:14:22;;;;;;;1.40;0.80;;;16.60;68.70;;;;;;10365836;28;20120;-55
2023/04/30 19:19:23;;;;;;;1.13;0.68;;;16.60;68.70;;;;;;10364843;28;20049;-57
2023/04/30 19:24:24;;;;;;;1.58;0.80;;;16.60;68.70;;;;;;10365045;28;20136;-56
2023/04/30 19:29:24;;;;;;;1.17;0.93;;;16.50;68.70;;;;;;10364136;28;20022;-57
2023/04/30 19:34:28;;;;;;;1.92;1.05;;;16.50;68.60;;;;;;10364619;28;20105;-57
2023/04/30 19:39:34;;;;;;;1.17;0.80;;;16.50;68.60;;;;;;10364920;28;20022;-53
2023/04/30 19:44:36;;;;;;;1.58;1.05;;;16.50;68.60;;;;;;10363181;28;20373;-57
2023/04/30 19:49:36;;;;;;;1.98;0.80;;;16.50;68.50;;;;;;10364581;28;20022;-56
2023/04/30 19:54:37;;;;;;;2.08;0.80;;;16.50;68.50;;;;;;10364044;28;20104;-56
2023/04/30 19:59:38;;;;;;;1.30;0.95;;;16.50;68.50;;;;;;10363192;28;20540;-57
2023/04/30 20:04:38;;;;;;;1.65;0.75;;;16.50;68.50;;;;;;10362438;28;20137;-57
2023/04/30 20:09:39;;;;;;;1.05;0.50;;;16.50;68.50;;;;;;10363442;28;20105;-56
2023/04/30 20:14:40;;;;;;;0.80;0.57;;;16.50;68.50;;;;;;10364187;28;20093;-55
2023/04/30 20:19:40;;;;;;;0.95;0.52;;;16.40;68.50;;;;;;10363661;28;20024;-57
2023/04/30 20:24:43;;;;;;;1.08;0.70;;;16.50;68.50;;;;;;10354947;28;20039;-57
2023/04/30 20:29:43;;;;;;;1.10;0.50;;;16.50;68.50;;;;;;10359440;28;20492;-57
2023/04/30 20:34:44;;;;;;;0.90;0.60;;;16.50;68.50;;;;;;10362973;28;20118;-57
2023/04/30 20:39:45;;;;;;;1.38;0.80;;;16.40;68.30;;;;;;10363475;28;20025;-56
2023/04/30 20:44:46;;;;;;;1.27;0.60;;;16.50;68.40;;;;;;10363966;28;20113;-57
2023/04/30 20:49:47;;;;;;;3.15;1.10;;;16.40;68.30;;;;;;10363329;28;20038;-55
2023/04/30 20:54:49;;;;;;;1.00;0.80;;;16.40;68.30;;;;;;10363599;28;20049;-56
2023/04/30 20:59:49;;;;;;;1.02;0.60;;;16.40;68.30;;;;;;10366773;28;20056;-57
2023/04/30 21:04:50;;;;;;;1.73;0.75;;;16.40;68.20;;;;;;10371008;28;20124;-57
2023/04/30 21:09:50;;;;;;;1.10;0.70;;;16.40;68.20;;;;;;10370541;28;20490;-56
2023/04/30 21:14:51;;;;;;;2.00;1.00;;;16.40;68.20;;;;;;10369387;28;20106;-56
2023/04/30 21:19:52;;;;;;;1.40;0.80;;;16.40;68.20;;;;;;10370084;28;20076;-57
2023/04/30 21:24:53;;;;;;;1.13;0.80;;;16.30;68.10;;;;;;10370088;28;20110;-56
2023/04/30 21:29:53;;;;;;;2.08;0.77;;;16.40;68.10;;;;;;10369424;28;20034;-57
2023/04/30 21:34:54;;;;;;;1.27;0.90;;;16.40;68.10;;;;;;10369799;28;20010;-57
2023/04/30 21:39:55;;;;;;;1.00;0.75;;;16.40;68.00;;;;;;10369609;28;20112;-57
2023/04/30 21:44:55;;;;;;;1.02;0.73;;;16.40;68.10;;;;;;10369898;28;20018;-56
2023/04/30 21:49:57;;;;;;;2.38;0.90;;;16.40;68.00;;;;;;10368862;28;20194;-56
2023/04/30 21:54:58;;;;;;;2.50;0.70;;;16.30;68.00;;;;;;10369416;28;20026;-54
2023/04/30 21:59:59;;;;;;;1.08;0.60;;;16.30;67.90;;;;;;10368416;28;20508;-57
2023/04/30 22:04:59;;;;;;;0.95;0.73;;;16.30;67.90;;;;;;10367567;28;20046;-56
2023/04/30 22:10:03;;;;;;;1.80;0.80;;;16.30;67.90;;;;;;10367840;28;20679;-56
2023/04/30 22:15:05;;;;;;;1.17;0.80;;;16.30;67.90;;;;;;10368342;28;20018;-57
2023/04/30 22:20:08;;;;;;;1.17;0.90;;;16.30;67.90;;;;;;10368016;28;20046;-57
2023/04/30 22:25:09;;;;;;;1.25;0.70;;;16.30;67.90;;;;;;10367591;28;20085;-57
2023/04/30 22:30:10;;;;;;;1.45;0.60;;;16.30;67.70;;;;;;10368738;28;20454;-56
2023/04/30 22:35:17;;;;;;;0.98;0.73;;;16.30;67.70;;;;;;10367572;28;20076;-55
2023/04/30 22:40:19;;;;;;;1.10;0.60;;;16.30;67.70;;;;;;10367224;28;20030;-55
2023/04/30 22:45:20;;;;;;;1.25;0.75;;;16.30;67.60;;;;;;10366921;28;20033;-55
2023/04/30 22:50:20;;;;;;;2.08;0.90;;;16.30;67.60;;;;;;10366555;28;20504;-57
2023/04/30 22:55:21;;;;;;;1.38;0.80;;;16.20;67.60;;;;;;10366522;28;20493;-56
2023/04/30 23:00:22;;;;;;;1.58;1.05;;;16.30;67.50;;;;;;10366977;28;20017;-56
2023/04/30 23:05:23;;;;;;;1.25;0.77;;;16.30;67.50;;;;;;10365817;28;20041;-55
2023/04/30 23:10:24;;;;;;;1.83;0.95;;;16.20;67.40;;;;;;10365486;28;20032;-57
2023/04/30 23:15:25;;;;;;;1.38;0.98;;;16.20;67.40;;;;;;10365986;28;20052;-57
2023/04/30 23:20:26;;;;;;;1.40;0.85;;;16.20;67.30;;;;;;10363363;28;20049;-57
2023/04/30 23:25:27;;;;;;;1.75;0.82;;;16.20;67.90;;;;;;10364860;28;20034;-56
2023/04/30 23:30:27;;;;;;;2.30;1.20;;;16.20;67.30;;;;;;10365187;28;20433;-55
2023/04/30 23:35:28;;;;;;;0.80;0.73;;;16.20;67.30;;;;;;10364723;28;20568;-56
2023/04/30 23:40:29;;;;;;;1.20;0.80;;;16.20;67.20;;;;;;10364861;28;20105;-56
2023/04/30 23:45:30;;;;;;;1.13;0.57;;;16.20;67.20;;;;;;10364940;28;20121;-56
2023/04/30 23:50:30;;;;;;;2.05;1.10;;;16.20;67.20;;;;;;10362700;28;20030;-54
2023/04/30 23:55:31;;;;;;;1.60;0.90;;;16.20;67.10;;;;;;10363491;28;20101;-56
